createdAt,value
2019-04-26T00:00:58.167Z,63.18
2019-04-26T00:01:58.186Z,63.23
2019-04-26T00:02:58.167Z,63.19
2019-04-26T00:03:58.233Z,63.00
2019-04-26T00:04:58.297Z,63.27
2019-04-26T00:05:58.306Z,63.16
2019-04-26T00:06:58.195Z,62.03
2019-04-26T00:07:58.309Z,62.42
2019-04-26T00:08:58.200Z,63.00
2019-04-26T00:09:58.193Z,63.23
2019-04-26T00:10:58.198Z,63.46
2019-04-26T00:11:58.118Z,63.65
2019-04-26T00:12:58.131Z,63.26
2019-04-26T00:13:58.134Z,63.45
2019-04-26T00:14:58.156Z,63.19
2019-04-26T00:15:58.178Z,63.12
2019-04-26T00:16:58.271Z,63.05
2019-04-26T00:17:58.232Z,62.70
2019-04-26T00:18:58.184Z,62.86
2019-04-26T00:19:58.237Z,62.89
2019-04-26T00:20:58.175Z,63.39
2019-04-26T00:21:58.192Z,62.86
2019-04-26T00:22:58.216Z,63.26
2019-04-26T00:23:58.355Z,63.26
2019-04-26T00:24:58.266Z,63.68
2019-04-26T00:25:58.366Z,63.27
2019-04-26T00:26:58.239Z,63.64
2019-04-26T00:27:58.368Z,63.66
2019-04-26T00:28:58.157Z,64.00
2019-04-26T00:29:58.287Z,63.97
2019-04-26T00:30:58.379Z,63.42
2019-04-26T00:31:58.281Z,63.46
2019-04-26T00:32:58.303Z,63.11
2019-04-26T00:33:58.424Z,63.10
2019-04-26T00:34:58.340Z,63.05
2019-04-26T00:35:58.395Z,63.16
2019-04-26T00:36:58.408Z,63.52
2019-04-26T00:37:58.412Z,63.35
2019-04-26T00:38:58.537Z,63.81
2019-04-26T00:39:58.441Z,63.67
2019-04-26T00:40:58.461Z,63.92
2019-04-26T00:41:58.358Z,63.66
2019-04-26T00:42:58.469Z,63.26
2019-04-26T00:43:58.504Z,62.80
2019-04-26T00:44:58.515Z,62.92
2019-04-26T00:45:58.476Z,63.03
2019-04-26T00:46:58.576Z,62.99
2019-04-26T00:47:58.527Z,62.96
2019-04-26T00:48:58.638Z,63.36
2019-04-26T00:49:58.637Z,63.63
2019-04-26T00:50:58.511Z,63.51
2019-04-26T00:51:58.525Z,63.75
2019-04-26T00:52:58.584Z,63.94
2019-04-26T00:53:58.560Z,63.91
2019-04-26T00:54:58.575Z,63.79
2019-04-26T00:55:58.550Z,63.72
2019-04-26T00:56:58.693Z,63.72
2019-04-26T00:57:58.745Z,63.85
2019-04-26T00:58:58.800Z,63.51
2019-04-26T00:59:58.670Z,63.24
2019-04-26T01:00:58.809Z,63.05
2019-04-26T01:01:58.727Z,63.58
2019-04-26T01:02:58.772Z,63.70
2019-04-26T01:03:58.758Z,63.62
2019-04-26T01:04:58.764Z,63.87
2019-04-26T01:06:00.189Z,63.35
2019-04-26T01:06:58.783Z,63.12
2019-04-26T01:07:58.839Z,63.33
2019-04-26T01:08:58.745Z,65.11
2019-04-26T01:09:58.788Z,64.11
2019-04-26T01:10:58.738Z,64.93
2019-04-26T01:11:59.012Z,64.76
2019-04-26T01:12:58.685Z,65.01
2019-04-26T01:13:58.796Z,65.78
2019-04-26T01:14:58.771Z,65.95
2019-04-26T01:15:58.829Z,66.46
2019-04-26T01:16:58.711Z,66.60
2019-04-26T01:17:58.785Z,66.61
2019-04-26T01:18:58.876Z,67.26
2019-04-26T01:19:58.730Z,67.90
2019-04-26T01:20:58.766Z,68.85
2019-04-26T01:21:58.744Z,68.96
2019-04-26T01:22:58.886Z,68.79
2019-04-26T01:23:58.781Z,70.01
2019-04-26T01:24:58.805Z,69.44
2019-04-26T01:25:58.803Z,69.12
2019-04-26T01:26:59.022Z,71.01
2019-04-26T01:27:58.901Z,69.91
2019-04-26T01:28:58.753Z,70.98
2019-04-26T01:29:58.724Z,70.19
2019-04-26T01:30:58.851Z,71.19
2019-04-26T01:31:58.728Z,70.11
2019-04-26T01:32:58.816Z,69.30
2019-04-26T01:33:58.840Z,71.50
2019-04-26T01:34:58.756Z,70.30
2019-04-26T01:35:58.777Z,70.84
2019-04-26T01:36:58.871Z,70.62
2019-04-26T01:37:58.740Z,71.25
2019-04-26T01:38:58.887Z,70.89
2019-04-26T01:39:58.837Z,70.18
2019-04-26T01:41:03.295Z,71.17
2019-04-26T01:41:58.669Z,70.94
2019-04-26T01:42:58.689Z,72.19
2019-04-26T01:43:58.846Z,72.11
2019-04-26T01:44:58.858Z,72.50
2019-04-26T01:45:58.779Z,73.10
2019-04-26T01:46:58.646Z,72.22
2019-04-26T01:47:58.746Z,72.34
2019-04-26T01:48:58.765Z,72.47
2019-04-26T01:49:58.708Z,72.13
2019-04-26T01:50:58.778Z,73.10
2019-04-26T01:51:58.799Z,72.84
2019-04-26T01:52:59.933Z,72.30
2019-04-26T01:53:58.784Z,72.57
2019-04-26T01:54:58.894Z,72.92
2019-04-26T01:55:58.856Z,72.69
2019-04-26T01:56:58.813Z,72.50
2019-04-26T01:57:58.849Z,73.06
2019-04-26T01:58:58.825Z,73.55
2019-04-26T01:59:58.815Z,73.81
2019-04-26T02:00:58.739Z,73.48
2019-04-26T02:01:58.833Z,73.76
2019-04-26T02:02:58.749Z,74.41
2019-04-26T02:03:58.750Z,74.34
2019-04-26T02:04:58.930Z,73.75
2019-04-26T02:05:58.874Z,74.93
2019-04-26T02:06:58.691Z,74.37
2019-04-26T02:07:58.908Z,75.60
2019-04-26T02:08:58.821Z,74.54
2019-04-26T02:09:58.821Z,75.54
2019-04-26T02:10:58.825Z,75.37
2019-04-26T02:11:58.898Z,74.79
2019-04-26T02:12:58.846Z,74.64
2019-04-26T02:13:58.848Z,74.00
2019-04-26T02:14:58.784Z,74.23
2019-04-26T02:15:58.859Z,72.40
2019-04-26T02:16:58.955Z,73.88
2019-04-26T02:17:58.867Z,74.22
2019-04-26T02:18:58.866Z,74.77
2019-04-26T02:19:58.804Z,73.96
2019-04-26T02:20:58.873Z,75.22
2019-04-26T02:21:59.008Z,75.22
2019-04-26T02:22:58.910Z,75.22
2019-04-26T02:23:58.914Z,74.64
2019-04-26T02:24:58.949Z,74.03
2019-04-26T02:25:59.061Z,75.66
2019-04-26T02:26:58.959Z,73.58
2019-04-26T02:27:59.062Z,74.56
2019-04-26T02:28:59.085Z,76.59
2019-04-26T02:29:59.144Z,76.28
2019-04-26T02:30:59.117Z,74.60
2019-04-26T02:31:58.979Z,76.85
2019-04-26T02:32:59.093Z,75.65
2019-04-26T02:33:58.999Z,75.19
2019-04-26T02:34:59.062Z,74.95
2019-04-26T02:35:59.078Z,73.91
2019-04-26T02:36:59.182Z,74.82
2019-04-26T02:37:59.201Z,75.10
2019-04-26T02:38:59.248Z,75.15
2019-04-26T02:39:59.228Z,75.42
2019-04-26T02:40:59.177Z,76.27
2019-04-26T02:41:59.149Z,74.54
2019-04-26T02:42:59.173Z,75.11
2019-04-26T02:43:59.186Z,75.13
2019-04-26T02:44:59.210Z,75.52
2019-04-26T02:45:59.199Z,76.40
2019-04-26T02:46:59.197Z,75.38
2019-04-26T02:47:59.219Z,76.36
2019-04-26T02:48:59.330Z,74.87
2019-04-26T02:49:59.347Z,75.80
2019-04-26T02:50:59.264Z,75.02
2019-04-26T02:51:59.346Z,75.48
2019-04-26T02:52:59.549Z,75.36
2019-04-26T02:53:59.258Z,75.76
2019-04-26T02:54:59.247Z,76.02
2019-04-26T02:55:59.234Z,75.80
2019-04-26T02:56:59.249Z,75.78
2019-04-26T02:57:59.261Z,75.16
2019-04-26T02:58:59.366Z,76.17
2019-04-26T02:59:59.441Z,76.08
2019-04-26T03:00:59.465Z,75.06
2019-04-26T03:01:59.379Z,77.13
2019-04-26T03:02:59.503Z,76.33
2019-04-26T03:03:59.412Z,77.69
2019-04-26T03:04:59.517Z,76.98
2019-04-26T03:05:59.540Z,77.39
2019-04-26T03:07:03.502Z,77.21
2019-04-26T03:07:59.455Z,77.20
2019-04-26T03:08:59.428Z,76.96
2019-04-26T03:09:59.537Z,75.85
2019-04-26T03:10:59.470Z,75.89
2019-04-26T03:11:59.670Z,77.09
2019-04-26T03:12:59.372Z,77.27
2019-04-26T03:13:59.415Z,77.79
2019-04-26T03:15:13.504Z,75.56
2019-04-26T03:15:59.505Z,76.25
2019-04-26T03:16:59.394Z,77.57
2019-04-26T03:17:59.622Z,76.92
2019-04-26T03:18:59.565Z,77.34
2019-04-26T03:19:59.533Z,78.72
2019-04-26T03:20:59.471Z,78.29
2019-04-26T03:21:59.418Z,77.83
2019-04-26T03:22:59.539Z,77.61
2019-04-26T03:23:59.654Z,79.18
2019-04-26T03:24:59.527Z,77.96
2019-04-26T03:25:59.615Z,79.42
2019-04-26T03:26:59.507Z,79.04
2019-04-26T03:27:59.511Z,79.30
2019-04-26T03:28:59.411Z,79.69
2019-04-26T03:30:18.235Z,80.09
2019-04-26T03:30:59.421Z,80.01
2019-04-26T03:31:59.432Z,80.31
2019-04-26T03:32:59.518Z,79.67
2019-04-26T03:33:59.621Z,80.71
2019-04-26T03:34:59.585Z,80.44
2019-04-26T03:35:59.433Z,81.15
2019-04-26T03:36:59.450Z,80.69
2019-04-26T03:37:59.515Z,80.93
2019-04-26T03:38:59.579Z,81.05
2019-04-26T03:39:59.610Z,80.63
2019-04-26T03:40:59.487Z,81.36
2019-04-26T03:41:59.506Z,81.56
2019-04-26T03:42:59.640Z,81.11
2019-04-26T03:43:59.430Z,80.78
2019-04-26T03:44:59.706Z,81.02
2019-04-26T03:45:59.467Z,81.53
2019-04-26T03:46:59.440Z,81.33
2019-04-26T03:47:59.566Z,81.46
2019-04-26T03:48:59.530Z,82.18
2019-04-26T03:49:59.519Z,81.97
2019-04-26T03:50:59.584Z,81.53
2019-04-26T03:51:59.447Z,80.81
2019-04-26T03:52:59.612Z,80.59
2019-04-26T03:53:59.670Z,81.83
2019-04-26T03:54:59.563Z,81.43
2019-04-26T03:55:59.687Z,80.61
2019-04-26T03:56:59.530Z,80.91
2019-04-26T03:58:00.561Z,81.17
2019-04-26T03:58:59.538Z,80.94
2019-04-26T03:59:59.508Z,80.98
2019-04-26T04:00:59.418Z,80.30
2019-04-26T04:01:59.589Z,80.90
2019-04-26T04:02:59.487Z,80.43
2019-04-26T04:03:59.443Z,80.61
2019-04-26T04:04:59.530Z,80.46
2019-04-26T04:05:59.998Z,81.40
2019-04-26T04:07:04.871Z,81.80
2019-04-26T04:07:59.498Z,80.89
2019-04-26T04:08:59.515Z,82.95
2019-04-26T04:09:59.567Z,83.05
2019-04-26T04:10:59.491Z,81.00
2019-04-26T04:12:10.962Z,82.11
2019-04-26T04:12:59.556Z,82.59
2019-04-26T04:13:59.584Z,82.94
2019-04-26T04:14:59.532Z,83.01
2019-04-26T04:15:59.451Z,83.31
2019-04-26T04:16:59.613Z,83.88
2019-04-26T04:17:59.681Z,83.66
2019-04-26T04:18:59.476Z,82.83
2019-04-26T04:19:59.533Z,82.68
2019-04-26T04:20:59.468Z,82.76
2019-04-26T04:21:59.617Z,83.49
2019-04-26T04:22:59.592Z,82.84
2019-04-26T04:23:59.622Z,81.69
2019-04-26T04:24:59.649Z,82.75
2019-04-26T04:25:59.512Z,83.15
2019-04-26T04:26:59.663Z,82.96
2019-04-26T04:28:03.112Z,83.23
2019-04-26T04:28:59.747Z,82.45
2019-04-26T04:29:59.523Z,83.40
2019-04-26T04:30:59.502Z,83.65
2019-04-26T04:31:59.452Z,82.39
2019-04-26T04:32:59.479Z,84.19
2019-04-26T04:33:59.457Z,82.66
2019-04-26T04:34:59.537Z,83.67
2019-04-26T04:35:59.531Z,83.50
2019-04-26T04:36:59.629Z,83.75
2019-04-26T04:38:08.782Z,81.94
2019-04-26T04:39:10.937Z,82.26
2019-04-26T04:39:59.676Z,80.82
2019-04-26T04:40:59.808Z,82.13
2019-04-26T04:41:59.572Z,81.31
2019-04-26T04:42:59.614Z,82.36
2019-04-26T04:43:59.538Z,83.09
2019-04-26T04:44:59.639Z,83.39
2019-04-26T04:45:59.599Z,83.70
2019-04-26T04:46:59.606Z,83.12
2019-04-26T04:47:59.787Z,82.27
2019-04-26T04:48:59.621Z,81.86
2019-04-26T04:49:59.690Z,82.02
2019-04-26T04:50:59.626Z,81.27
2019-04-26T04:51:59.544Z,81.05
2019-04-26T04:52:59.522Z,81.37
2019-04-26T04:53:59.562Z,81.04
2019-04-26T04:55:07.101Z,81.92
2019-04-26T04:55:59.626Z,81.72
2019-04-26T04:56:59.552Z,81.25
2019-04-26T04:57:59.564Z,81.19
2019-04-26T04:58:59.661Z,82.76
2019-04-26T04:59:59.599Z,82.47
2019-04-26T05:00:59.604Z,81.80
2019-04-26T05:01:59.741Z,82.02
2019-04-26T05:02:59.710Z,81.33
2019-04-26T05:03:59.688Z,82.01
2019-04-26T05:04:59.707Z,82.70
2019-04-26T05:06:07.251Z,82.11
2019-04-26T05:06:59.563Z,83.26
2019-04-26T05:08:06.644Z,81.16
2019-04-26T05:08:59.558Z,82.55
2019-04-26T05:09:59.620Z,82.99
2019-04-26T05:10:59.559Z,82.66
2019-04-26T05:11:59.589Z,83.21
2019-04-26T05:12:59.699Z,81.24
2019-04-26T05:13:59.642Z,82.76
2019-04-26T05:14:59.742Z,82.73
2019-04-26T05:15:59.538Z,82.76
2019-04-26T05:16:59.626Z,82.97
2019-04-26T05:17:59.521Z,82.54
2019-04-26T05:18:59.492Z,84.09
2019-04-26T05:19:59.570Z,83.62
2019-04-26T05:20:59.515Z,84.09
2019-04-26T05:21:59.527Z,83.62
2019-04-26T05:22:59.570Z,84.50
2019-04-26T05:23:59.665Z,84.33
2019-04-26T05:24:59.721Z,83.75
2019-04-26T05:25:59.599Z,83.44
2019-04-26T05:26:59.840Z,83.66
2019-04-26T05:27:59.506Z,84.11
2019-04-26T05:28:59.625Z,85.17
2019-04-26T05:29:59.586Z,83.66
2019-04-26T05:30:59.588Z,83.94
2019-04-26T05:31:59.761Z,84.51
2019-04-26T05:32:59.553Z,85.00
2019-04-26T05:33:59.687Z,84.16
2019-04-26T05:34:59.831Z,84.11
2019-04-26T05:35:59.551Z,84.54
2019-04-26T05:36:59.588Z,83.79
2019-04-26T05:38:04.159Z,82.69
2019-04-26T05:38:59.604Z,84.73
2019-04-26T05:39:59.636Z,84.72
2019-04-26T05:40:59.595Z,84.28
2019-04-26T05:41:59.604Z,84.80
2019-04-26T05:42:59.609Z,83.92
2019-04-26T05:43:59.691Z,83.24
2019-04-26T05:45:01.903Z,83.69
2019-04-26T05:45:59.748Z,83.27
2019-04-26T05:46:59.537Z,83.65
2019-04-26T05:48:09.279Z,84.05
2019-04-26T05:48:59.683Z,83.83
2019-04-26T05:49:59.603Z,83.67
2019-04-26T05:50:59.584Z,82.95
2019-04-26T05:51:59.787Z,83.57
2019-04-26T05:52:59.790Z,83.21
2019-04-26T05:53:59.564Z,83.58
2019-04-26T05:54:59.710Z,83.47
2019-04-26T05:55:59.624Z,83.41
2019-04-26T05:56:59.771Z,83.54
2019-04-26T05:57:59.630Z,84.49
2019-04-26T05:59:01.444Z,84.45
2019-04-26T06:00:01.016Z,83.96
2019-04-26T06:00:59.860Z,84.35
2019-04-26T06:01:59.659Z,83.40
2019-04-26T06:02:59.568Z,84.20
2019-04-26T06:03:59.650Z,82.99
2019-04-26T06:04:59.601Z,82.91
2019-04-26T06:05:59.619Z,82.87
2019-04-26T06:06:59.565Z,82.57
2019-04-26T06:07:59.780Z,84.42
2019-04-26T06:08:59.685Z,83.45
2019-04-26T06:09:59.774Z,83.38
2019-04-26T06:10:59.994Z,82.93
2019-04-26T06:11:59.580Z,81.62
2019-04-26T06:13:00.119Z,82.93
2019-04-26T06:13:59.911Z,83.64
2019-04-26T06:15:00.708Z,84.16
2019-04-26T06:16:00.138Z,83.46
2019-04-26T06:16:59.639Z,83.40
2019-04-26T06:17:59.796Z,83.04
2019-04-26T06:18:59.801Z,81.88
2019-04-26T06:19:59.628Z,82.54
2019-04-26T06:20:59.823Z,81.25
2019-04-26T06:22:00.033Z,82.73
2019-04-26T06:23:00.735Z,81.46
2019-04-26T06:23:59.998Z,82.40
2019-04-26T06:25:00.471Z,80.91
2019-04-26T06:26:01.437Z,81.06
2019-04-26T06:27:11.005Z,82.32
2019-04-26T06:28:00.641Z,83.52
2019-04-26T06:28:59.652Z,81.59
2019-04-26T06:30:01.006Z,82.76
2019-04-26T06:30:59.669Z,82.26
2019-04-26T06:32:00.473Z,83.90
2019-04-26T06:33:03.992Z,82.48
2019-04-26T06:34:00.860Z,83.70
2019-04-26T06:34:59.727Z,84.79
2019-04-26T06:35:59.705Z,84.25
2019-04-26T06:36:59.837Z,83.89
2019-04-26T06:37:59.823Z,84.09
2019-04-26T06:38:59.924Z,82.97
2019-04-26T06:39:59.963Z,84.19
2019-04-26T06:41:00.203Z,84.89
2019-04-26T06:42:00.728Z,84.18
2019-04-26T06:43:00.542Z,83.30
2019-04-26T06:44:00.399Z,82.92
2019-04-26T06:45:00.433Z,83.66
2019-04-26T06:46:00.550Z,83.16
2019-04-26T06:46:59.956Z,82.82
2019-04-26T06:47:59.782Z,83.10
2019-04-26T06:48:59.791Z,83.01
2019-04-26T06:49:59.744Z,82.62
2019-04-26T06:50:59.839Z,83.14
2019-04-26T06:52:00.419Z,82.19
2019-04-26T06:52:59.748Z,81.93
2019-04-26T06:54:00.652Z,81.77
2019-04-26T06:54:59.832Z,82.24
2019-04-26T06:56:00.815Z,82.58
2019-04-26T06:57:10.613Z,81.19
2019-04-26T06:58:00.994Z,82.44
2019-04-26T06:58:59.795Z,81.79
2019-04-26T06:59:59.846Z,82.40
2019-04-26T07:00:59.777Z,82.49
2019-04-26T07:02:00.896Z,83.13
2019-04-26T07:03:01.042Z,82.05
2019-04-26T07:03:59.802Z,82.71
2019-04-26T07:05:00.702Z,83.30
2019-04-26T07:06:00.369Z,83.76
2019-04-26T07:07:00.824Z,84.03
2019-04-26T07:07:59.762Z,84.63
2019-04-26T07:09:01.200Z,84.84
2019-04-26T07:10:00.251Z,84.90
2019-04-26T07:11:00.675Z,84.51
2019-04-26T07:12:00.810Z,83.88
2019-04-26T07:13:00.933Z,84.43
2019-04-26T07:14:00.619Z,84.42
2019-04-26T07:15:00.556Z,83.75
2019-04-26T07:16:00.331Z,82.82
2019-04-26T07:17:00.697Z,83.40
2019-04-26T07:18:00.919Z,84.72
2019-04-26T07:19:01.180Z,84.93
2019-04-26T07:20:01.463Z,83.84
2019-04-26T07:21:00.596Z,84.62
2019-04-26T07:22:00.594Z,83.45
2019-04-26T07:23:00.914Z,81.88
2019-04-26T07:23:59.766Z,82.37
2019-04-26T07:25:00.151Z,82.97
2019-04-26T07:26:00.319Z,83.08
2019-04-26T07:27:01.249Z,84.59
2019-04-26T07:28:06.446Z,85.66
2019-04-26T07:29:01.396Z,84.83
2019-04-26T07:30:01.641Z,85.34
2019-04-26T07:31:00.894Z,84.58
2019-04-26T07:32:00.884Z,85.75
2019-04-26T07:33:00.959Z,84.38
2019-04-26T07:34:00.790Z,83.05
2019-04-26T07:35:00.211Z,84.18
2019-04-26T07:36:01.173Z,83.88
2019-04-26T07:37:00.196Z,83.55
2019-04-26T07:38:01.172Z,82.26
2019-04-26T07:39:10.730Z,81.20
2019-04-26T07:40:01.371Z,81.85
2019-04-26T07:41:01.477Z,82.38
2019-04-26T07:42:01.565Z,83.42
2019-04-26T07:43:01.707Z,83.76
2019-04-26T07:44:00.992Z,83.61
2019-04-26T07:44:59.878Z,84.44
2019-04-26T07:46:01.357Z,83.13
2019-04-26T07:46:59.982Z,83.25
2019-04-26T07:47:59.775Z,83.62
2019-04-26T07:48:59.838Z,84.13
2019-04-26T07:49:59.887Z,84.84
2019-04-26T07:50:59.860Z,83.71
2019-04-26T07:51:59.978Z,84.60
2019-04-26T07:52:59.781Z,82.76
2019-04-26T07:53:59.927Z,82.45
2019-04-26T07:54:59.887Z,81.59
2019-04-26T07:55:59.882Z,83.06
2019-04-26T07:56:59.914Z,83.79
2019-04-26T07:57:59.978Z,81.95
2019-04-26T07:58:59.813Z,82.49
2019-04-26T07:59:59.868Z,82.50
2019-04-26T08:00:59.840Z,82.62
2019-04-26T08:01:59.911Z,82.72
2019-04-26T08:02:59.877Z,82.92
2019-04-26T08:03:59.954Z,81.62
2019-04-26T08:05:00.007Z,82.89
2019-04-26T08:06:01.011Z,83.45
2019-04-26T08:06:59.922Z,84.00
2019-04-26T08:07:59.928Z,83.23
2019-04-26T08:08:59.889Z,83.14
2019-04-26T08:10:00.188Z,83.84
2019-04-26T08:10:59.827Z,83.62
2019-04-26T08:11:59.840Z,84.04
2019-04-26T08:12:59.769Z,83.16
2019-04-26T08:13:59.872Z,84.05
2019-04-26T08:14:59.862Z,83.77
2019-04-26T08:15:59.917Z,84.75
2019-04-26T08:16:59.905Z,83.46
2019-04-26T08:17:59.814Z,84.04
2019-04-26T08:18:59.860Z,84.99
2019-04-26T08:19:59.943Z,83.23
2019-04-26T08:21:02.548Z,83.51
2019-04-26T08:22:11.466Z,84.20
2019-04-26T08:23:02.651Z,84.83
2019-04-26T08:23:59.954Z,85.08
2019-04-26T08:24:59.905Z,85.03
2019-04-26T08:25:59.789Z,84.96
2019-04-26T08:27:08.864Z,85.96
2019-04-26T08:27:59.814Z,87.04
2019-04-26T08:29:00.566Z,86.05
2019-04-26T08:30:03.298Z,85.72
2019-04-26T08:30:59.905Z,84.67
2019-04-26T08:31:59.908Z,84.91
2019-04-26T08:33:02.104Z,85.11
2019-04-26T08:33:59.882Z,84.86
2019-04-26T08:35:02.338Z,84.31
2019-04-26T08:35:59.898Z,85.62
2019-04-26T08:37:01.817Z,84.65
2019-04-26T08:37:59.826Z,84.67
2019-04-26T08:38:59.794Z,84.10
2019-04-26T08:39:59.995Z,84.23
2019-04-26T08:41:00.540Z,85.56
2019-04-26T08:41:59.950Z,85.91
2019-04-26T08:42:59.795Z,85.70
2019-04-26T08:43:59.906Z,85.76
2019-04-26T08:44:59.904Z,81.99
2019-04-26T08:46:03.077Z,82.51
2019-04-26T08:46:59.878Z,84.79
2019-04-26T08:47:59.803Z,83.20
2019-04-26T08:49:02.112Z,83.44
2019-04-26T08:50:00.059Z,82.77
2019-04-26T08:50:59.913Z,85.20
2019-04-26T08:51:59.899Z,85.41
2019-04-26T08:52:59.943Z,84.83
2019-04-26T08:53:59.825Z,84.21
2019-04-26T08:54:59.865Z,84.25
2019-04-26T08:55:59.805Z,83.36
2019-04-26T08:56:59.931Z,82.29
2019-04-26T08:57:59.952Z,85.06
2019-04-26T08:58:59.851Z,84.73
2019-04-26T08:59:59.847Z,84.83
2019-04-26T09:00:59.986Z,84.18
2019-04-26T09:01:59.857Z,82.12
2019-04-26T09:03:11.005Z,84.21
2019-04-26T09:04:00.021Z,82.15
2019-04-26T09:04:59.964Z,84.15
2019-04-26T09:05:59.843Z,84.52
2019-04-26T09:06:59.908Z,83.01
2019-04-26T09:07:59.940Z,82.71
2019-04-26T09:08:59.813Z,83.11
2019-04-26T09:10:01.597Z,83.48
2019-04-26T09:10:59.896Z,85.15
2019-04-26T09:12:00.180Z,84.57
2019-04-26T09:12:59.904Z,83.18
2019-04-26T09:13:59.847Z,82.78
2019-04-26T09:15:00.132Z,84.05
2019-04-26T09:15:59.874Z,83.19
2019-04-26T09:16:59.897Z,84.29
2019-04-26T09:18:02.176Z,84.34
2019-04-26T09:18:59.974Z,84.18
2019-04-26T09:20:06.973Z,83.93
2019-04-26T09:20:59.897Z,84.37
2019-04-26T09:22:12.180Z,84.90
2019-04-26T09:23:03.945Z,84.60
2019-04-26T09:23:59.948Z,84.42
2019-04-26T09:25:00.980Z,83.24
2019-04-26T09:25:59.921Z,85.05
2019-04-26T09:26:59.895Z,85.81
2019-04-26T09:27:59.889Z,86.04
2019-04-26T09:29:00.050Z,84.89
2019-04-26T09:30:00.581Z,84.40
2019-04-26T09:30:59.797Z,84.53
2019-04-26T09:31:59.956Z,84.17
2019-04-26T09:33:02.048Z,83.41
2019-04-26T09:33:59.816Z,82.72
2019-04-26T09:34:59.974Z,83.61
2019-04-26T09:35:59.834Z,83.05
2019-04-26T09:37:00.099Z,83.92
2019-04-26T09:38:00.070Z,83.19
2019-04-26T09:38:59.940Z,84.17
2019-04-26T09:40:09.654Z,85.14
2019-04-26T09:41:00.647Z,84.26
2019-04-26T09:42:01.132Z,83.87
2019-04-26T09:43:02.420Z,84.11
2019-04-26T09:44:00.307Z,82.97
2019-04-26T09:45:00.005Z,84.16
2019-04-26T09:45:59.797Z,83.36
2019-04-26T09:46:59.968Z,83.11
2019-04-26T09:48:00.048Z,84.75
2019-04-26T09:49:03.045Z,83.61
2019-04-26T09:49:59.967Z,83.62
2019-04-26T09:50:59.860Z,83.80
2019-04-26T09:51:59.973Z,84.09
2019-04-26T09:52:59.984Z,82.64
2019-04-26T09:53:59.971Z,83.95
2019-04-26T09:54:59.995Z,83.50
2019-04-26T09:55:59.998Z,82.93
2019-04-26T09:56:59.948Z,84.39
2019-04-26T09:57:59.894Z,84.48
2019-04-26T09:59:01.459Z,81.70
2019-04-26T09:59:59.994Z,82.20
2019-04-26T10:00:59.876Z,83.70
2019-04-26T10:02:00.319Z,85.00
2019-04-26T10:02:59.819Z,85.21
2019-04-26T10:03:59.923Z,85.99
2019-04-26T10:04:59.988Z,85.61
2019-04-26T10:05:59.992Z,84.43
2019-04-26T10:07:03.226Z,84.98
2019-04-26T10:08:00.100Z,82.40
2019-04-26T10:08:59.967Z,82.20
2019-04-26T10:10:00.890Z,83.55
2019-04-26T10:10:59.895Z,81.53
2019-04-26T10:11:59.970Z,82.02
2019-04-26T10:13:00.040Z,82.78
2019-04-26T10:13:59.936Z,82.02
2019-04-26T10:15:00.063Z,81.86
2019-04-26T10:16:02.615Z,81.12
2019-04-26T10:16:59.925Z,82.18
2019-04-26T10:18:00.084Z,82.03
2019-04-26T10:18:59.980Z,81.80
2019-04-26T10:20:00.099Z,81.22
2019-04-26T10:20:59.975Z,80.81
2019-04-26T10:21:59.975Z,82.05
2019-04-26T10:22:59.895Z,81.08
2019-04-26T10:24:00.108Z,81.80
2019-04-26T10:25:02.370Z,81.64
2019-04-26T10:25:59.967Z,81.92
2019-04-26T10:27:03.295Z,81.59
2019-04-26T10:28:00.010Z,81.46
2019-04-26T10:29:00.330Z,83.38
2019-04-26T10:30:07.993Z,83.41
2019-04-26T10:31:00.161Z,83.76
2019-04-26T10:32:00.094Z,83.62
2019-04-26T10:33:02.212Z,83.29
2019-04-26T10:33:59.926Z,80.78
2019-04-26T10:35:00.081Z,82.93
2019-04-26T10:36:00.530Z,82.09
2019-04-26T10:37:01.599Z,81.64
2019-04-26T10:38:00.032Z,80.28
2019-04-26T10:39:00.633Z,80.06
2019-04-26T10:40:00.193Z,82.03
2019-04-26T10:40:59.889Z,80.98
2019-04-26T10:42:00.009Z,79.41
2019-04-26T10:43:00.169Z,80.51
2019-04-26T10:43:59.950Z,79.80
2019-04-26T10:45:00.001Z,82.19
2019-04-26T10:45:59.943Z,81.56
2019-04-26T10:47:03.851Z,81.94
2019-04-26T10:47:59.910Z,80.27
2019-04-26T10:49:08.548Z,82.43
2019-04-26T10:50:00.102Z,80.58
2019-04-26T10:51:03.370Z,80.12
2019-04-26T10:52:00.001Z,78.75
2019-04-26T10:52:59.910Z,81.92
2019-04-26T10:54:01.596Z,79.33
2019-04-26T10:55:00.041Z,80.05
2019-04-26T10:56:00.046Z,80.81
2019-04-26T10:56:59.982Z,81.58
2019-04-26T10:58:00.020Z,80.94
2019-04-26T10:58:59.928Z,80.99
2019-04-26T10:59:59.979Z,81.12
2019-04-26T11:00:59.983Z,80.73
2019-04-26T11:01:59.959Z,81.10
2019-04-26T11:03:04.031Z,81.09
2019-04-26T11:04:00.094Z,81.54
2019-04-26T11:05:00.064Z,80.77
2019-04-26T11:06:00.007Z,81.96
2019-04-26T11:07:01.898Z,80.93
2019-04-26T11:08:00.109Z,81.83
2019-04-26T11:09:00.064Z,79.50
2019-04-26T11:10:02.874Z,82.43
2019-04-26T11:11:00.097Z,81.88
2019-04-26T11:12:00.020Z,82.79
2019-04-26T11:13:00.061Z,82.56
2019-04-26T11:13:59.996Z,82.55
2019-04-26T11:15:00.036Z,81.23
2019-04-26T11:16:02.517Z,82.32
2019-04-26T11:16:59.989Z,80.53
2019-04-26T11:17:59.894Z,82.91
2019-04-26T11:19:01.096Z,79.16
2019-04-26T11:19:59.964Z,81.15
2019-04-26T11:21:00.150Z,78.63
2019-04-26T11:22:00.051Z,80.62
2019-04-26T11:23:00.054Z,79.93
2019-04-26T11:24:00.020Z,80.83
2019-04-26T11:25:00.083Z,80.75
2019-04-26T11:26:01.732Z,80.26
2019-04-26T11:27:00.192Z,78.35
2019-04-26T11:28:00.676Z,80.10
2019-04-26T11:29:00.094Z,80.61
2019-04-26T11:30:10.750Z,81.69
2019-04-26T11:31:00.009Z,80.69
2019-04-26T11:32:02.670Z,79.72
2019-04-26T11:32:59.996Z,82.32
2019-04-26T11:34:05.473Z,78.26
2019-04-26T11:35:00.479Z,79.71
2019-04-26T11:36:03.305Z,80.74
2019-04-26T11:37:00.100Z,78.28
2019-04-26T11:38:00.283Z,81.62
2019-04-26T11:39:01.299Z,80.34
2019-04-26T11:40:00.142Z,80.13
2019-04-26T11:41:06.394Z,81.14
2019-04-26T11:41:59.980Z,79.69
2019-04-26T11:43:00.072Z,79.61
2019-04-26T11:44:00.098Z,79.19
2019-04-26T11:45:06.096Z,81.21
2019-04-26T11:46:04.419Z,81.22
2019-04-26T11:47:03.227Z,80.37
2019-04-26T11:48:00.032Z,79.19
2019-04-26T11:49:03.170Z,79.81
2019-04-26T11:50:00.110Z,79.43
2019-04-26T11:51:00.175Z,79.21
2019-04-26T11:52:02.764Z,79.83
2019-04-26T11:53:00.019Z,79.34
2019-04-26T11:53:59.997Z,80.25
2019-04-26T11:55:00.244Z,80.75
2019-04-26T11:56:04.165Z,79.96
2019-04-26T11:57:00.175Z,79.71
2019-04-26T11:58:00.071Z,78.45
2019-04-26T11:58:59.999Z,77.93
2019-04-26T12:00:01.337Z,79.71
2019-04-26T12:01:00.026Z,79.64
2019-04-26T12:01:59.972Z,78.25
2019-04-26T12:03:00.049Z,77.37
2019-04-26T12:04:00.767Z,78.14
2019-04-26T12:05:00.093Z,78.49
2019-04-26T12:06:00.078Z,76.75
2019-04-26T12:07:00.156Z,79.54
2019-04-26T12:08:00.092Z,78.74
2019-04-26T12:09:00.154Z,79.04
2019-04-26T12:10:00.011Z,79.80
2019-04-26T12:11:00.243Z,79.92
2019-04-26T12:12:04.723Z,79.85
2019-04-26T12:13:05.927Z,79.17
2019-04-26T12:14:00.865Z,78.86
2019-04-26T12:15:03.880Z,77.56
2019-04-26T12:16:00.070Z,78.02
2019-04-26T12:17:58.087Z,76.70
2019-04-26T12:20:49.725Z,74.53
2019-04-26T12:21:49.736Z,75.84
2019-04-26T12:22:49.735Z,76.87
2019-04-26T12:23:51.405Z,77.62
2019-04-26T12:24:49.852Z,77.68
2019-04-26T12:25:52.500Z,77.53
2019-04-26T12:26:52.005Z,77.28
2019-04-26T12:27:53.347Z,74.98
2019-04-26T12:28:49.892Z,74.96
2019-04-26T12:29:49.908Z,73.76
2019-04-26T12:30:49.810Z,76.98
2019-04-26T12:31:49.766Z,76.19
2019-04-26T12:32:50.182Z,75.91
2019-04-26T12:33:49.733Z,75.89
2019-04-26T12:34:49.693Z,75.72
2019-04-26T12:35:56.928Z,74.66
2019-04-26T12:36:49.885Z,72.55
2019-04-26T12:37:50.576Z,73.85
2019-04-26T12:38:50.265Z,75.04
2019-04-26T12:39:49.872Z,73.43
2019-04-26T12:40:49.868Z,72.47
2019-04-26T12:41:49.815Z,72.96
2019-04-26T12:42:49.792Z,73.17
2019-04-26T12:43:49.978Z,73.03
2019-04-26T12:44:49.804Z,73.24
2019-04-26T12:45:51.541Z,73.22
2019-04-26T12:46:50.720Z,72.83
2019-04-26T12:47:49.681Z,74.33
2019-04-26T12:48:50.996Z,73.56
2019-04-26T12:49:49.754Z,73.66
2019-04-26T12:50:49.761Z,73.12
2019-04-26T12:51:52.032Z,72.64
2019-04-26T12:52:51.538Z,72.43
2019-04-26T12:53:49.775Z,73.44
2019-04-26T12:54:49.837Z,74.07
2019-04-26T12:55:53.654Z,74.20